Time;durP1;ratioP1;P1;durP2;ratioP2;P2;SDS_P1;SDS_P2;PMS_P1;PMS_P2;Temp;Humidity;BMP_temperature;BMP_pressure;BME280_temperature;BME280_humidity;BME280_pressure;Samples;Min_cycle;Max_cycle;Signal;HPM_P1;HPM_P2
2023/08/16 00:02:19;;;;;;;3.22;2.25;;;;;;;;;;4975075;28;20034;-80
2023/08/16 00:04:46;;;;;;;3.63;2.20;;;;;;;;;;4976253;28;20030;-79
2023/08/16 00:07:12;;;;;;;7.72;2.85;;;;;;;;;;5001844;28;20250;-78
2023/08/16 00:09:40;;;;;;;7.97;2.42;;;17.90;99.90;;;;;;4973407;28;20630;-81
2023/08/16 00:12:07;;;;;;;2.85;1.98;;;17.70;99.90;;;;;;4972472;28;20057;-78
2023/08/16 00:14:33;;;;;;;3.20;1.90;;;;;;;;;;4957229;28;20041;-80
2023/08/16 00:16:59;;;;;;;3.70;2.22;;;;;;;;;;4960425;28;20038;-81
2023/08/16 00:19:26;;;;;;;5.20;1.88;;;;;;;;;;4979417;28;20035;-81
2023/08/16 00:21:52;;;;;;;3.85;2.15;;;;;;;;;;4965270;28;20380;-81
2023/08/16 00:24:18;;;;;;;3.20;2.20;;;;;;;;;;4963147;28;20407;-81
2023/08/16 00:26:44;;;;;;;5.63;2.20;;;;;;;;;;4968897;28;20022;-81
2023/08/16 00:29:10;;;;;;;2.13;1.50;;;;;;;;;;4964984;28;20033;-81
2023/08/16 00:31:36;;;;;;;3.45;1.75;;;;;;;;;;4962456;28;20031;-81
2023/08/16 00:34:03;;;;;;;3.08;1.80;;;17.80;99.90;;;;;;4966328;28;20027;-81
2023/08/16 00:36:29;;;;;;;3.28;1.90;;;;;;;;;;4963989;28;20048;-80
2023/08/16 00:38:55;;;;;;;5.07;2.42;;;;;;;;;;4972669;28;20400;-81
2023/08/16 00:41:20;;;;;;;5.22;2.58;;;18.10;99.90;;;;;;4959064;28;20030;-81
2023/08/16 00:43:47;;;;;;;5.75;2.13;;;;;;;;;;4950430;28;20077;-80
2023/08/16 00:46:13;;;;;;;4.15;2.17;;;17.80;99.90;;;;;;4964809;28;20090;-81
2023/08/16 00:48:42;;;;;;;3.03;2.00;;;17.90;99.90;;;;;;4960013;28;20039;-79
2023/08/16 00:51:09;;;;;;;6.25;2.20;;;17.90;99.90;;;;;;4964445;28;20061;-80
2023/08/16 00:53:35;;;;;;;9.63;2.00;;;;;;;;;;4963314;28;20039;-80
2023/08/16 00:56:03;;;;;;;3.90;2.40;;;17.80;99.90;;;;;;4959433;28;20082;-80
2023/08/16 00:58:29;;;;;;;5.05;3.30;;;;;;;;;;4969073;28;20061;-80
2023/08/16 01:00:55;;;;;;;5.90;2.55;;;;;;;;;;4965151;28;20035;-80
2023/08/16 01:03:21;;;;;;;5.40;2.35;;;;;;;;;;4958316;28;20081;-82
2023/08/16 01:05:47;;;;;;;5.85;3.17;;;;;;;;;;4962201;28;20042;-80
2023/08/16 01:08:13;;;;;;;8.07;2.70;;;;;;;;;;4959988;28;20042;-82
2023/08/16 01:10:58;;;;;;;5.20;2.70;;;18.00;99.90;;;;;;4961112;28;20488;-81
2023/08/16 01:13:34;;;;;;;5.15;3.42;;;17.80;99.90;;;;;;4937945;28;20122;-81
2023/08/16 01:16:07;;;;;;;6.15;2.45;;;17.90;99.90;;;;;;4942823;28;20402;-81
2023/08/16 01:18:34;;;;;;;;;;;17.90;99.90;;;;;;4973313;28;20034;-80
2023/08/16 01:21:01;;;;;;;4.47;2.58;;;17.80;99.90;;;;;;4943460;28;19922;-79
2023/08/16 01:23:43;;;;;;;4.68;2.33;;;17.60;99.90;;;;;;4968999;28;20042;-82
2023/08/16 01:26:28;;;;;;;3.30;1.95;;;18.30;99.90;;;;;;4958547;28;20298;-83
2023/08/16 01:28:55;;;;;;;2.50;1.45;;;;;;;;;;4976452;28;20031;-80
2023/08/16 01:31:21;;;;;;;3.28;1.90;;;;;;;;;;4966657;28;20038;-79
2023/08/16 01:33:47;;;;;;;5.53;2.00;;;;;;;;;;4958327;28;20404;-79
2023/08/16 01:36:13;;;;;;;3.58;2.30;;;;;;;;;;4970202;28;20022;-80
2023/08/16 01:38:39;;;;;;;2.58;1.70;;;;;;;;;;4971162;28;20027;-79
2023/08/16 01:41:16;;;;;;;2.65;1.60;;;18.00;99.90;;;;;;4976145;28;20028;-79
2023/08/16 01:43:44;;;;;;;3.03;1.67;;;;;;;;;;4966474;28;20594;-80
2023/08/16 01:46:11;;;;;;;3.67;1.88;;;;;;;;;;4979018;28;20023;-80
2023/08/16 01:48:38;;;;;;;4.63;2.80;;;;;;;;;;4974811;28;20484;-79
2023/08/16 01:51:05;;;;;;;2.17;1.63;;;17.40;99.90;;;;;;4977235;28;20026;-81
2023/08/16 01:53:30;;;;;;;2.03;1.33;;;;;;;;;;4978913;28;20058;-80
2023/08/16 01:55:56;;;;;;;3.97;1.88;;;;;;;;;;4970106;28;20499;-80
2023/08/16 01:58:24;;;;;;;2.75;1.58;;;;;;;;;;4960647;28;20039;-80
2023/08/16 02:00:50;;;;;;;2.50;1.67;;;;;;;;;;4962121;28;20026;-80
2023/08/16 02:03:16;;;;;;;2.83;1.67;;;;;;;;;;4974262;28;22283;-80
2023/08/16 02:05:42;;;;;;;2.72;1.70;;;;;;;;;;4971670;28;20037;-81
2023/08/16 02:08:10;;;;;;;3.35;1.75;;;;;;;;;;4961760;28;20084;-80
2023/08/16 02:10:36;;;;;;;4.15;2.15;;;;;;;;;;4963321;28;20073;-80
2023/08/16 02:13:02;;;;;;;4.55;2.58;;;;;;;;;;4984570;28;20395;-80
2023/08/16 02:15:28;;;;;;;5.10;1.95;;;;;;;;;;4958558;28;20043;-80
2023/08/16 02:17:54;;;;;;;4.43;2.63;;;;;;;;;;4975418;28;20042;-81
2023/08/16 02:20:20;;;;;;;3.45;1.83;;;;;;;;;;4957482;28;20076;-80
2023/08/16 02:22:46;;;;;;;6.60;2.63;;;;;;;;;;4958755;28;20466;-79
2023/08/16 02:25:12;;;;;;;5.05;2.00;;;;;;;;;;4962111;28;20034;-80
2023/08/16 02:27:38;;;;;;;3.33;2.28;;;;;;;;;;4969333;28;20437;-79
2023/08/16 02:30:04;;;;;;;4.75;2.25;;;;;;;;;;4960578;28;20026;-80
2023/08/16 02:32:32;;;;;;;4.45;1.67;;;;;;;;;;4962046;28;20034;-80
2023/08/16 02:34:57;;;;;;;3.42;2.22;;;;;;;;;;4958793;28;20026;-80
2023/08/16 02:37:24;;;;;;;3.20;2.38;;;;;;;;;;4956558;28;20101;-81
2023/08/16 02:39:50;;;;;;;4.35;2.63;;;;;;;;;;4959011;28;20027;-79
2023/08/16 02:42:16;;;;;;;9.23;2.88;;;;;;;;;;4958855;28;20110;-79
2023/08/16 02:44:42;;;;;;;4.72;2.60;;;;;;;;;;4978126;28;20122;-80
2023/08/16 02:47:08;;;;;;;4.85;2.58;;;;;;;;;;4962381;28;20104;-80
2023/08/16 02:49:34;;;;;;;6.65;3.08;;;;;;;;;;4957900;28;20034;-80
2023/08/16 02:51:59;;;;;;;7.32;2.45;;;;;;;;;;4955750;28;20034;-79
2023/08/16 02:54:26;;;;;;;6.35;3.00;;;;;;;;;;4959925;28;20416;-80
2023/08/16 02:56:52;;;;;;;4.32;2.50;;;;;;;;;;4962406;28;20047;-80
2023/08/16 02:59:18;;;;;;;6.40;3.05;;;;;;;;;;4960096;28;20022;-80
2023/08/16 03:01:44;;;;;;;4.03;2.42;;;;;;;;;;4972907;28;20031;-80
2023/08/16 03:04:10;;;;;;;3.13;2.05;;;;;;;;;;4978673;28;20027;-80
2023/08/16 03:06:36;;;;;;;10.55;2.50;;;;;;;;;;4960118;28;20034;-81
2023/08/16 03:09:03;;;;;;;4.93;2.55;;;;;;;;;;4961059;28;20035;-79
2023/08/16 03:11:29;;;;;;;5.63;2.85;;;;;;;;;;4963252;28;20076;-79
2023/08/16 03:13:54;;;;;;;3.90;2.30;;;17.20;99.90;;;;;;4957113;28;20030;-79
2023/08/16 03:16:20;;;;;;;4.13;2.38;;;;;;;;;;4953015;28;20434;-80
2023/08/16 03:18:46;;;;;;;5.03;2.85;;;;;;;;;;4976315;28;20035;-80
2023/08/16 03:21:12;;;;;;;10.35;2.72;;;;;;;;;;4960424;28;20069;-79
2023/08/16 03:23:38;;;;;;;7.63;2.35;;;;;;;;;;4976537;28;20110;-80
2023/08/16 03:26:04;;;;;;;5.25;3.17;;;;;;;;;;4959057;28;20030;-79
2023/08/16 03:28:30;;;;;;;5.60;3.17;;;;;;;;;;4961632;28;20268;-80
2023/08/16 03:30:56;;;;;;;13.05;3.05;;;;;;;;;;4968501;28;20039;-79
2023/08/16 03:33:22;;;;;;;6.95;3.83;;;;;;;;;;4985918;28;20023;-79
2023/08/16 03:35:48;;;;;;;8.43;4.22;;;;;;;;;;4975218;28;20035;-82
2023/08/16 03:38:14;;;;;;;6.40;3.33;;;;;;;;;;4961579;28;20035;-81
2023/08/16 03:40:40;;;;;;;14.18;3.80;;;;;;;;;;4955724;28;20071;-81
2023/08/16 03:43:06;;;;;;;10.93;3.63;;;;;;;;;;4963278;28;20033;-81
2023/08/16 03:45:32;;;;;;;7.72;4.30;;;;;;;;;;4962390;28;20034;-81
2023/08/16 03:47:58;;;;;;;7.85;3.10;;;;;;;;;;4964382;28;20019;-82
2023/08/16 03:50:24;;;;;;;6.35;3.55;;;;;;;;;;4959401;28;20491;-81
2023/08/16 03:52:50;;;;;;;6.05;3.45;;;17.30;99.90;;;;;;4961528;28;20407;-80
2023/08/16 03:55:16;;;;;;;11.20;3.55;;;;;;;;;;4966002;28;20038;-81
2023/08/16 03:57:42;;;;;;;5.55;3.58;;;;;;;;;;4962447;28;20027;-82
2023/08/16 04:00:11;;;;;;;7.68;3.85;;;17.30;99.90;;;;;;4970177;28;20114;-82
2023/08/16 04:02:37;;;;;;;5.32;3.47;;;;;;;;;;4940591;28;20023;-82
2023/08/16 04:05:14;;;;;;;6.80;3.75;;;17.30;99.90;;;;;;4957738;28;20027;-80
2023/08/16 04:07:40;;;;;;;6.75;3.55;;;;;;;;;;4961861;28;20521;-81
2023/08/16 04:10:07;;;;;;;4.68;3.58;;;;;;;;;;4974677;28;20122;-81
2023/08/16 04:12:33;;;;;;;9.50;4.18;;;;;;;;;;4966640;28;20038;-80
2023/08/16 04:14:59;;;;;;;8.48;3.78;;;;;;;;;;4980813;28;20035;-81
2023/08/16 04:17:25;;;;;;;8.40;4.43;;;17.20;99.90;;;;;;4977707;28;20046;-80
2023/08/16 04:19:51;;;;;;;10.15;3.45;;;;;;;;;;4963470;28;20050;-81
2023/08/16 04:22:17;;;;;;;8.10;3.63;;;17.40;99.90;;;;;;4983013;28;20117;-81
2023/08/16 04:24:46;;;;;;;7.20;4.22;;;;;;;;;;4973848;28;20038;-83
2023/08/16 04:27:11;;;;;;;6.65;3.60;;;;;;;;;;4980099;28;20074;-80
2023/08/16 04:29:37;;;;;;;8.07;3.65;;;;;;;;;;4962931;28;20034;-80
2023/08/16 04:32:03;;;;;;;8.20;3.35;;;;;;;;;;4967737;28;20041;-81
2023/08/16 04:34:29;;;;;;;5.93;3.00;;;;;;;;;;4975546;28;20070;-81
2023/08/16 04:36:55;;;;;;;6.63;3.65;;;;;;;;;;4962107;28;20066;-80
2023/08/16 04:39:22;;;;;;;6.97;3.70;;;17.80;99.90;;;;;;4966267;28;20098;-80
2023/08/16 04:41:48;;;;;;;5.03;3.47;;;;;;;;;;4970915;28;20041;-81
2023/08/16 04:44:14;;;;;;;8.10;3.97;;;;;;;;;;4982179;28;20181;-82
2023/08/16 04:46:40;;;;;;;8.98;3.28;;;;;;;;;;4976605;28;20024;-81
2023/08/16 04:49:06;;;;;;;4.35;3.15;;;17.50;99.90;;;;;;4968778;28;20058;-81
2023/08/16 04:51:32;;;;;;;5.50;3.72;;;;;;;;;;4961166;28;20035;-81
2023/08/16 04:53:59;;;;;;;9.05;3.60;;;;;;;;;;4957076;28;20034;-81
2023/08/16 04:56:25;;;;;;;6.78;4.22;;;;;;;;;;4953749;28;20058;-81
2023/08/16 04:58:51;;;;;;;6.38;3.05;;;;;;;;;;4957588;28;21604;-80
2023/08/16 05:01:22;;;;;;;4.35;2.78;;;17.90;99.90;;;;;;4975819;28;20138;-81
2023/08/16 05:03:52;;;;;;;6.43;3.08;;;;;;;;;;4945243;28;20114;-81
2023/08/16 05:06:18;;;;;;;7.47;2.92;;;;;;;;;;4977149;28;20034;-81
2023/08/16 05:08:44;;;;;;;7.85;3.13;;;;;;;;;;4960252;28;20027;-81
2023/08/16 05:11:10;;;;;;;5.80;3.45;;;;;;;;;;4957498;28;20034;-81
2023/08/16 05:13:36;;;;;;;4.15;2.55;;;;;;;;;;4964144;28;20053;-79
2023/08/16 05:16:02;;;;;;;5.20;2.83;;;;;;;;;;4964528;28;20464;-81
2023/08/16 05:18:28;;;;;;;10.35;3.13;;;;;;;;;;4959749;28;20049;-81
2023/08/16 05:21:02;;;;;;;5.93;3.45;;;;;;;;;;4955816;28;20062;-80
2023/08/16 05:23:29;;;;;;;7.25;3.20;;;;;;;;;;4955131;28;20034;-81
2023/08/16 05:25:54;;;;;;;9.82;3.20;;;;;;;;;;4954829;28;20030;-80
2023/08/16 05:28:21;;;;;;;9.15;3.80;;;;;;;;;;4961945;28;20023;-81
2023/08/16 05:30:46;;;;;;;8.70;2.80;;;;;;;;;;4973942;28;20421;-80
2023/08/16 05:33:12;;;;;;;4.75;3.00;;;;;;;;;;4974967;28;20038;-80
2023/08/16 05:35:43;;;;;;;4.47;3.03;;;;;;;;;;4950802;28;20101;-80
2023/08/16 05:38:09;;;;;;;5.35;2.80;;;;;;;;;;4952123;28;20182;-81
2023/08/16 05:40:34;;;;;;;6.78;2.80;;;;;;;;;;4956253;28;20086;-80
2023/08/16 05:43:00;;;;;;;12.82;2.78;;;;;;;;;;4977890;28;20507;-80
2023/08/16 05:45:28;;;;;;;7.05;2.63;;;;;;;;;;4963956;28;20111;-81
2023/08/16 05:47:54;;;;;;;4.82;2.55;;;;;;;;;;4963417;28;20023;-79
2023/08/16 05:50:20;;;;;;;4.15;2.25;;;;;;;;;;4962744;28;20508;-80
2023/08/16 05:52:46;;;;;;;3.55;2.53;;;;;;;;;;4967981;28;20596;-81
2023/08/16 05:55:12;;;;;;;8.73;2.55;;;;;;;;;;4976730;28;20067;-80
2023/08/16 05:57:38;;;;;;;4.30;2.65;;;;;;;;;;4954790;28;20049;-79
2023/08/16 06:00:04;;;;;;;4.05;2.47;;;;;;;;;;4953482;28;20038;-79
2023/08/16 06:02:30;;;;;;;4.47;2.50;;;;;;;;;;4962722;28;20118;-82
2023/08/16 06:04:58;;;;;;;3.83;2.08;;;;;;;;;;4951872;28;20452;-80
2023/08/16 06:07:25;;;;;;;4.78;2.33;;;;;;;;;;4968419;28;20122;-80
2023/08/16 06:09:50;;;;;;;3.40;2.50;;;;;;;;;;4976439;28;20030;-79
2023/08/16 06:12:17;;;;;;;4.13;2.72;;;;;;;;;;4956232;28;20030;-80
2023/08/16 06:14:43;;;;;;;4.60;2.55;;;;;;;;;;4947496;28;20514;-80
2023/08/16 06:17:09;;;;;;;6.07;2.72;;;;;;;;;;4953016;28;20039;-80
2023/08/16 06:19:35;;;;;;;3.70;2.38;;;;;;;;;;4957802;28;20031;-80
2023/08/16 06:22:01;;;;;;;6.55;2.83;;;;;;;;;;4967533;28;20109;-82
2023/08/16 06:24:27;;;;;;;4.93;1.92;;;;;;;;;;4965369;28;20039;-81
2023/08/16 06:26:53;;;;;;;3.75;2.10;;;;;;;;;;4979061;28;20019;-81
2023/08/16 06:29:19;;;;;;;3.20;2.08;;;;;;;;;;4939829;28;20069;-83
2023/08/16 06:31:46;;;;;;;4.07;2.40;;;;;;;;;;4958587;28;20054;-82
2023/08/16 06:34:12;;;;;;;3.28;2.17;;;;;;;;;;4962151;28;20085;-82
2023/08/16 06:36:38;;;;;;;6.28;2.70;;;;;;;;;;4958955;28;20043;-82
2023/08/16 06:39:04;;;;;;;5.93;2.50;;;;;;;;;;4959873;28;20030;-79
2023/08/16 06:41:30;;;;;;;5.18;2.30;;;;;;;;;;4984227;28;20030;-79
2023/08/16 06:43:56;;;;;;;3.80;2.50;;;;;;;;;;4992901;28;20026;-80
2023/08/16 06:46:22;;;;;;;5.97;1.98;;;20.70;99.90;;;;;;4967258;28;20485;-82
2023/08/16 06:48:48;;;;;;;3.25;1.77;;;;;;;;;;4958150;28;20500;-82
2023/08/16 06:51:15;;;;;;;7.63;2.72;;;;;;;;;;4963302;28;20411;-81
2023/08/16 06:53:42;;;;;;;3.85;2.50;;;;;;;;;;4958688;28;20488;-82
2023/08/16 06:56:08;;;;;;;3.65;2.15;;;;;;;;;;4963523;28;20078;-82
2023/08/16 06:58:34;;;;;;;6.85;1.83;;;;;;;;;;4964621;28;20059;-80
2023/08/16 07:01:00;;;;;;;3.40;2.13;;;;;;;;;;4953086;28;20090;-83
2023/08/16 07:03:26;;;;;;;3.30;1.83;;;;;;;;;;4962055;28;20045;-82
2023/08/16 07:05:52;;;;;;;5.80;1.88;;;;;;;;;;4968712;28;20113;-81
2023/08/16 07:08:18;;;;;;;6.25;3.35;;;;;;;;;;4964472;28;20019;-81
2023/08/16 07:10:44;;;;;;;6.78;3.05;;;;;;;;;;4973435;28;20026;-81
2023/08/16 07:13:10;;;;;;;7.22;2.10;;;;;;;;;;4986944;28;20042;-81
2023/08/16 07:15:36;;;;;;;2.90;1.60;;;;;;;;;;4983497;28;20039;-82
2023/08/16 07:18:02;;;;;;;3.63;1.60;;;24.00;99.90;;;;;;4972806;28;20443;-82
2023/08/16 07:20:29;;;;;;;2.42;1.58;;;25.00;99.90;;;;;;4966636;28;20043;-81
2023/08/16 07:22:57;;;;;;;7.55;2.30;;;;;;;;;;4968396;28;20037;-81
2023/08/16 07:25:23;;;;;;;9.50;1.75;;;;;;;;;;4963998;28;20571;-82
2023/08/16 07:27:49;;;;;;;5.65;1.27;;;;;;;;;;4970011;28;20115;-82
2023/08/16 07:30:15;;;;;;;6.35;1.98;;;24.50;99.90;;;;;;4981053;28;20073;-82
2023/08/16 07:32:41;;;;;;;6.70;1.67;;;;;;;;;;4962797;28;20034;-82
2023/08/16 07:35:08;;;;;;;4.07;1.77;;;;;;;;;;4967069;28;20031;-82
2023/08/16 07:37:34;;;;;;;4.60;1.50;;;;;;;;;;4964382;28;20027;-82
2023/08/16 07:40:00;;;;;;;3.90;1.50;;;;;;;;;;4958580;28;20035;-82
2023/08/16 07:42:26;;;;;;;2.33;1.52;;;;;;;;;;4967233;28;20039;-82
2023/08/16 07:44:52;;;;;;;2.08;1.20;;;;;;;;;;4977230;28;20024;-82
2023/08/16 07:47:18;;;;;;;2.08;1.33;;;;;;;;;;4964805;28;20324;-81
2023/08/16 07:49:44;;;;;;;3.83;2.03;;;;;;;;;;4960747;28;20570;-83
2023/08/16 07:52:10;;;;;;;2.78;1.77;;;;;;;;;;4958043;28;20042;-81
2023/08/16 07:54:36;;;;;;;7.13;2.10;;;;;;;;;;4964968;28;20051;-82
2023/08/16 07:57:02;;;;;;;3.10;1.77;;;;;;;;;;4962470;28;20035;-81
2023/08/16 07:59:28;;;;;;;5.95;1.40;;;;;;;;;;4975565;28;20066;-82
2023/08/16 08:01:56;;;;;;;2.90;1.40;;;;;;;;;;4965433;28;20038;-82
2023/08/16 08:04:22;;;;;;;5.80;1.55;;;;;;;;;;4959768;28;20030;-82
2023/08/16 08:06:48;;;;;;;7.03;1.48;;;24.80;99.90;;;;;;4957770;28;20058;-82
2023/08/16 08:09:14;;;;;;;4.43;1.55;;;;;;;;;;4979533;28;20097;-82
2023/08/16 08:11:40;;;;;;;2.88;1.17;;;;;;;;;;4959323;28;20499;-81
2023/08/16 08:14:06;;;;;;;2.92;1.10;;;;;;;;;;4977416;28;20392;-82
2023/08/16 08:16:32;;;;;;;3.72;1.52;;;;;;;;;;4966586;28;20402;-82
2023/08/16 08:18:58;;;;;;;2.03;1.38;;;;;;;;;;4974697;28;20492;-82
2023/08/16 08:21:24;;;;;;;1.55;1.15;;;;;;;;;;4961441;28;20102;-82
2023/08/16 08:23:50;;;;;;;1.73;0.90;;;;;;;;;;4961677;28;20530;-82
2023/08/16 08:26:16;;;;;;;1.67;0.90;;;;;;;;;;4972474;28;20594;-82
2023/08/16 08:28:44;;;;;;;4.18;1.02;;;;;;;;;;4980610;28;20023;-82
2023/08/16 08:31:09;;;;;;;2.33;0.73;;;;;;;;;;4981522;28;20475;-82
2023/08/16 08:33:35;;;;;;;2.58;1.15;;;;;;;;;;4972326;28;20047;-81
2023/08/16 08:36:03;;;;;;;2.80;0.93;;;;;;;;;;4962680;28;20037;-82
2023/08/16 08:38:29;;;;;;;2.00;0.90;;;;;;;;;;4977131;28;20031;-82
2023/08/16 08:41:00;;;;;;;2.88;1.27;;;28.00;99.90;;;;;;4964086;28;20521;-82
2023/08/16 08:43:34;;;;;;;2.00;1.10;;;27.90;99.90;;;;;;4937234;28;20027;-83
2023/08/16 08:46:00;;;;;;;1.38;0.82;;;28.20;99.90;;;;;;4962873;28;20043;-83
2023/08/16 08:48:29;;;;;;;2.28;0.90;;;27.70;99.90;;;;;;4962033;28;20045;-82
2023/08/16 08:50:56;;;;;;;2.47;1.00;;;;;;;;;;4965262;28;20279;-82
2023/08/16 08:53:23;;;;;;;1.98;0.68;;;;;;;;;;4959932;28;20042;-82
2023/08/16 08:55:53;;;;;;;1.50;1.00;;;28.00;99.90;;;;;;4970179;28;20122;-84
2023/08/16 08:58:20;;;;;;;2.92;0.88;;;28.10;99.90;;;;;;4983466;28;20026;-83
2023/08/16 09:00:46;;;;;;;1.27;0.73;;;;;;;;;;4945457;28;20027;-84
2023/08/16 09:03:15;;;;;;;1.33;0.70;;;27.50;99.90;;;;;;4973238;28;20019;-83
2023/08/16 09:05:41;;;;;;;1.20;0.60;;;;;;;;;;4957534;28;20171;-81
2023/08/16 09:08:09;;;;;;;1.67;0.82;;;;;;;;;;4983275;28;20069;-83
2023/08/16 09:10:36;;;;;;;1.92;0.60;;;26.70;99.90;;;;;;4963750;28;20038;-84
2023/08/16 09:13:04;;;;;;;5.05;1.00;;;26.40;99.90;;;;;;4946305;28;20495;-82
2023/08/16 09:15:31;;;;;;;2.05;1.10;;;;;;;;;;4952746;28;20047;-82
2023/08/16 09:18:14;;;;;;;1.55;0.57;;;25.70;99.90;;;;;;4979483;28;20081;-82
2023/08/16 09:20:42;;;;;;;1.48;0.68;;;25.70;99.90;;;;;;4962401;28;20096;-83
2023/08/16 09:23:15;;;;;;;2.10;0.95;;;25.30;99.90;;;;;;4965898;28;20345;-83
2023/08/16 09:25:41;;;;;;;3.80;1.10;;;;;;;;;;4961937;28;20550;-85
2023/08/16 09:28:10;;;;;;;2.08;1.30;;;;;;;;;;4958595;28;20060;-84
2023/08/16 09:30:36;;;;;;;2.78;1.30;;;;;;;;;;4950666;28;20114;-84
2023/08/16 09:33:02;;;;;;;2.47;1.15;;;;;;;;;;4937161;28;21079;-82
2023/08/16 09:35:33;;;;;;;1.75;0.82;;;25.10;99.90;;;;;;4957512;28;20042;-83
2023/08/16 09:37:59;;;;;;;1.92;0.82;;;24.70;99.90;;;;;;4951394;28;20035;-83
2023/08/16 09:40:26;;;;;;;2.53;1.17;;;;;;;;;;4953658;28;20058;-82
2023/08/16 09:42:52;;;;;;;2.42;1.17;;;;;;;;;;4952355;28;20491;-83
2023/08/16 09:45:34;;;;;;;4.00;1.10;;;25.10;99.90;;;;;;4951802;28;20022;-81
2023/08/16 09:48:00;;;;;;;2.33;1.05;;;25.80;99.90;;;;;;4959082;28;20086;-83
2023/08/16 09:50:32;;;;;;;2.70;0.85;;;25.80;99.90;;;;;;4973416;28;20026;-83
2023/08/16 09:52:58;;;;;;;5.03;1.25;;;26.30;99.90;;;;;;4968629;28;20129;-81
2023/08/16 09:55:33;;;;;;;1.73;1.00;;;26.90;99.90;;;;;;4958241;28;20031;-82
2023/08/16 09:57:59;;;;;;;1.77;0.93;;;;;;;;;;4973008;28;20041;-83
2023/08/16 10:00:27;;;;;;;1.17;0.60;;;27.10;99.90;;;;;;4977161;28;20309;-81
2023/08/16 10:02:53;;;;;;;1.90;0.90;;;;;;;;;;4954136;28;20030;-83
2023/08/16 10:05:19;;;;;;;2.58;1.02;;;;;;;;;;4958817;28;20029;-82
2023/08/16 10:07:48;;;;;;;2.80;1.25;;;;;;;;;;4965112;28;20098;-82
2023/08/16 10:10:15;;;;;;;1.80;0.85;;;28.20;99.90;;;;;;4965275;28;20027;-82
2023/08/16 10:12:43;;;;;;;1.55;0.75;;;27.70;99.90;;;;;;4964208;28;20388;-82
2023/08/16 10:15:09;;;;;;;3.08;1.02;;;28.20;99.90;;;;;;4970995;28;20177;-82
2023/08/16 10:17:39;;;;;;;8.15;0.77;;;27.90;99.90;;;;;;4956439;28;20058;-82
2023/08/16 10:20:15;;;;;;;2.03;0.70;;;27.90;99.90;;;;;;4961741;28;20043;-82
2023/08/16 10:22:43;;;;;;;5.68;0.70;;;27.50;99.90;;;;;;4940908;28;20031;-82
2023/08/16 10:25:15;;;;;;;4.32;1.52;;;27.40;99.90;;;;;;4950745;28;20042;-82
2023/08/16 10:27:46;;;;;;;2.17;1.00;;;28.20;99.90;;;;;;4965850;28;20116;-82
2023/08/16 10:30:21;;;;;;;2.95;0.98;;;28.00;99.90;;;;;;4950956;28;20233;-82
2023/08/16 10:33:10;;;;;;;1.85;0.95;;;28.00;99.90;;;;;;4939989;28;20260;-83
2023/08/16 10:35:39;;;;;;;1.45;0.88;;;27.40;99.90;;;;;;4942082;28;20097;-83
2023/08/16 10:38:05;;;;;;;1.13;0.70;;;;;;;;;;4960635;28;20027;-81
2023/08/16 10:40:31;;;;;;;1.55;0.70;;;;;;;;;;4932778;28;20292;-82
2023/08/16 10:42:59;;;;;;;4.38;1.33;;;29.40;99.90;;;;;;4934521;28;20034;-83
2023/08/16 10:45:34;;;;;;;1.52;0.60;;;29.40;99.90;;;;;;4948748;28;20022;-82
2023/08/16 10:48:14;;;;;;;2.33;1.08;;;28.90;99.90;;;;;;4952808;28;20121;-84
2023/08/16 10:50:41;;;;;;;1.75;0.80;;;;;;;;;;4963700;28;20035;-82
2023/08/16 10:53:07;;;;;;;3.92;0.90;;;;;;;;;;4955664;28;20039;-83
2023/08/16 10:55:35;;;;;;;2.65;0.77;;;28.90;99.90;;;;;;4949599;28;20090;-85
2023/08/16 10:58:01;;;;;;;1.90;0.90;;;;;;;;;;4946408;28;20031;-82
2023/08/16 11:00:32;;;;;;;1.55;0.80;;;29.00;99.90;;;;;;4961656;28;20035;-83
2023/08/16 11:02:59;;;;;;;2.22;0.68;;;;;;;;;;4931307;28;20027;-82
2023/08/16 11:05:26;;;;;;;2.78;0.77;;;;;;;;;;4948707;28;20118;-82
2023/08/16 11:07:53;;;;;;;1.30;0.60;;;;;;;;;;4973229;28;20037;-83
2023/08/16 11:10:18;;;;;;;1.95;0.90;;;;;;;;;;4964394;28;20039;-83
2023/08/16 11:12:46;;;;;;;1.42;0.80;;;;;;;;;;4948315;28;20031;-83
2023/08/16 11:15:12;;;;;;;1.10;0.70;;;;;;;;;;4967317;28;20550;-82
2023/08/16 11:17:42;;;;;;;4.15;0.82;;;;;;;;;;4949090;28;20031;-83
2023/08/16 11:20:09;;;;;;;4.38;1.13;;;;;;;;;;4972909;28;20035;-81
2023/08/16 11:22:35;;;;;;;2.53;0.80;;;;;;;;;;4955238;28;20030;-83
2023/08/16 11:25:01;;;;;;;2.70;0.90;;;;;;;;;;4956053;28;20035;-82
2023/08/16 11:27:28;;;;;;;4.35;0.98;;;;;;;;;;4975323;28;20950;-81
2023/08/16 11:29:55;;;;;;;5.88;1.17;;;;;;;;;;4954434;28;20035;-82
2023/08/16 11:32:37;;;;;;;1.70;1.00;;;30.00;99.80;;;;;;4955546;28;20193;-82
2023/08/16 11:35:10;;;;;;;1.92;1.02;;;;;;;;;;4955921;28;20121;-82
2023/08/16 11:37:36;;;;;;;2.38;0.80;;;;;;;;;;4954850;28;20062;-81
2023/08/16 11:40:09;;;;;;;2.47;1.27;;;30.60;99.90;;;;;;4974697;28;20046;-82
2023/08/16 11:42:34;;;;;;;;;;;29.80;99.90;;;;;;4944684;28;20031;-82
2023/08/16 11:45:01;;;;;;;2.95;1.02;;;;;;;;;;4937352;28;19925;-82
2023/08/16 11:47:27;;;;;;;4.50;1.17;;;;;;;;;;4969719;28;20030;-82
2023/08/16 11:49:53;;;;;;;3.70;0.93;;;;;;;;;;4975814;28;20402;-82
2023/08/16 11:52:25;;;;;;;2.08;0.88;;;30.70;98.40;;;;;;4977084;28;20070;-82
2023/08/16 11:55:05;;;;;;;1.90;0.93;;;30.20;98.70;;;;;;4963034;28;20161;-82
2023/08/16 11:57:43;;;;;;;1.35;0.82;;;30.00;99.40;;;;;;4963428;28;20093;-81
2023/08/16 12:00:10;;;;;;;2.17;0.90;;;;;;;;;;4942557;28;20426;-82
2023/08/16 12:02:36;;;;;;;1.98;1.00;;;30.10;97.90;;;;;;4959589;28;20126;-82
2023/08/16 12:05:11;;;;;;;1.42;0.80;;;30.40;99.90;;;;;;4946076;28;20101;-80
2023/08/16 12:08:04;;;;;;;2.70;1.00;;;29.90;96.10;;;;;;4940635;28;20065;-82
2023/08/16 12:10:32;;;;;;;1.25;0.70;;;;;;;;;;4958353;28;20039;-81
2023/08/16 12:12:58;;;;;;;1.83;0.80;;;;;;;;;;4973690;28;20058;-83
2023/08/16 12:15:27;;;;;;;1.73;0.90;;;30.40;98.30;;;;;;4963576;28;20129;-81
2023/08/16 12:17:55;;;;;;;2.30;1.10;;;30.20;98.70;;;;;;4958197;28;20103;-82
2023/08/16 12:20:24;;;;;;;1.58;0.80;;;;;;;;;;4955135;28;20041;-83
2023/08/16 12:22:50;;;;;;;3.42;0.90;;;;;;;;;;4961629;28;20361;-82
2023/08/16 12:25:18;;;;;;;3.90;1.13;;;;;;;;;;4960616;28;20042;-82
2023/08/16 12:27:44;;;;;;;3.28;0.98;;;;;;;;;;4979266;28;20034;-82
2023/08/16 12:30:10;;;;;;;2.08;0.88;;;;;;;;;;4956721;28;20035;-82
2023/08/16 12:32:36;;;;;;;2.70;0.95;;;;;;;;;;4972234;28;20046;-82
2023/08/16 12:35:02;;;;;;;2.58;1.13;;;;;;;;;;4969850;28;20035;-81
2023/08/16 12:37:29;;;;;;;1.50;0.82;;;;;;;;;;4977553;28;20039;-83
2023/08/16 12:39:54;;;;;;;1.48;1.10;;;;;;;;;;4974593;28;20037;-82
2023/08/16 12:42:20;;;;;;;2.95;0.88;;;;;;;;;;4953115;28;20035;-84
2023/08/16 12:44:46;;;;;;;1.92;1.23;;;;;;;;;;4947376;28;20037;-83
2023/08/16 12:47:14;;;;;;;2.78;1.00;;;;;;;;;;4966910;28;20058;-83
2023/08/16 12:49:40;;;;;;;3.25;1.60;;;;;;;;;;4974464;28;20062;-84
2023/08/16 12:52:06;;;;;;;3.22;1.05;;;;;;;;;;4965803;28;20029;-83
2023/08/16 12:54:32;;;;;;;2.85;1.35;;;;;;;;;;4975036;28;20608;-84
2023/08/16 12:56:58;;;;;;;10.32;1.90;;;;;;;;;;4946814;28;20030;-82
2023/08/16 12:59:25;;;;;;;1.85;1.00;;;;;;;;;;4954803;28;20484;-79
2023/08/16 13:01:51;;;;;;;2.15;0.88;;;;;;;;;;4956396;28;20541;-84
2023/08/16 13:04:17;;;;;;;1.98;1.10;;;;;;;;;;4975449;28;20411;-82
2023/08/16 13:06:43;;;;;;;2.33;1.35;;;;;;;;;;4977810;28;20575;-83
2023/08/16 13:09:09;;;;;;;4.05;1.25;;;;;;;;;;4960278;28;20500;-83
2023/08/16 13:11:35;;;;;;;1.52;1.05;;;;;;;;;;4946113;28;20031;-82
2023/08/16 13:14:02;;;;;;;3.00;1.38;;;;;;;;;;4957083;28;20034;-83
2023/08/16 13:16:28;;;;;;;3.03;1.33;;;;;;;;;;4972633;28;20035;-82
2023/08/16 13:18:54;;;;;;;3.15;1.45;;;;;;;;;;4959523;28;20035;-83
2023/08/16 13:21:20;;;;;;;1.27;0.75;;;;;;;;;;4974059;28;20122;-80
2023/08/16 13:23:50;;;;;;;2.10;1.10;;;30.40;98.70;;;;;;4978075;28;20035;-83
2023/08/16 13:26:16;;;;;;;3.70;1.73;;;;;;;;;;4968281;28;20213;-81
2023/08/16 13:28:42;;;;;;;2.58;1.30;;;;;;;;;;4982236;28;20035;-84
2023/08/16 13:31:09;;;;;;;2.38;1.35;;;30.60;98.50;;;;;;4982037;28;20025;-85
2023/08/16 13:33:35;;;;;;;3.38;1.33;;;;;;;;;;4941312;28;20037;-81
2023/08/16 13:36:01;;;;;;;5.47;1.45;;;;;;;;;;4975078;28;20030;-84
2023/08/16 13:38:27;;;;;;;1.98;1.10;;;;;;;;;;4972712;28;20254;-82
2023/08/16 13:40:53;;;;;;;3.40;1.33;;;;;;;;;;4969319;28;20120;-85
2023/08/16 13:43:21;;;;;;;2.22;1.08;;;;;;;;;;4970093;28;20030;-84
2023/08/16 13:45:47;;;;;;;3.28;1.30;;;;;;;;;;4974215;28;20153;-84
2023/08/16 13:48:13;;;;;;;1.77;1.10;;;;;;;;;;4962132;28;20288;-84
2023/08/16 13:50:39;;;;;;;2.38;0.80;;;;;;;;;;4952813;28;20043;-84
2023/08/16 13:53:05;;;;;;;4.88;1.48;;;;;;;;;;4960000;28;20034;-84
2023/08/16 13:55:32;;;;;;;2.40;0.93;;;;;;;;;;4954889;28;20039;-84
2023/08/16 13:57:58;;;;;;;2.50;1.20;;;;;;;;;;4958159;28;23047;-82
2023/08/16 14:00:24;;;;;;;1.48;0.90;;;;;;;;;;4975498;28;20417;-83
2023/08/16 14:02:50;;;;;;;0.82;0.60;;;;;;;;;;4975387;28;20024;-84
2023/08/16 14:05:18;;;;;;;1.60;1.02;;;;;;;;;;4979878;28;20074;-84
2023/08/16 14:07:44;;;;;;;10.02;1.92;;;;;;;;;;4969302;28;20069;-84
2023/08/16 14:10:10;;;;;;;4.05;1.40;;;;;;;;;;4962647;28;20027;-81
2023/08/16 14:12:36;;;;;;;2.92;1.40;;;;;;;;;;4964371;28;20031;-84
2023/08/16 14:15:03;;;;;;;5.30;1.10;;;;;;;;;;4963067;28;20046;-81